Time;durP1;ratioP1;P1;durP2;ratioP2;P2;SDS_P1;SDS_P2;PMS_P1;PMS_P2;Temp;Humidity;BMP_temperature;BMP_pressure;BME280_temperature;BME280_humidity;BME280_pressure;Samples;Min_cycle;Max_cycle;Signal;HPM_P1;HPM_P2
2023/01/21 00:00:33;;;;;;;52.60;24.13;;;-2.30;99.90;;;;;;5036609;28;20037;-74
2023/01/21 00:02:59;;;;;;;52.33;22.77;;;-2.40;99.90;;;;;;5053117;28;20124;-74
2023/01/21 00:05:24;;;;;;;53.17;23.13;;;-2.40;99.90;;;;;;5033313;28;20128;-74
2023/01/21 00:07:50;;;;;;;52.33;22.40;;;-2.50;99.90;;;;;;5033254;28;20057;-74
2023/01/21 00:10:17;;;;;;;50.13;23.37;;;-2.60;99.90;;;;;;5052547;28;20037;-74
2023/01/21 00:12:43;;;;;;;50.95;24.67;;;-2.60;99.90;;;;;;5050497;28;20041;-74
2023/01/21 00:15:09;;;;;;;49.43;22.23;;;-2.60;99.90;;;;;;5051770;28;20040;-74
2023/01/21 00:17:35;;;;;;;53.10;22.95;;;-2.70;99.90;;;;;;5052094;28;20085;-74
2023/01/21 00:20:05;;;;;;;52.13;23.80;;;-2.70;99.90;;;;;;5035660;28;20527;-74
2023/01/21 00:22:31;;;;;;;56.63;23.85;;;-2.70;99.90;;;;;;5041688;28;20079;-74
2023/01/21 00:24:57;;;;;;;55.13;22.85;;;-2.80;99.90;;;;;;5048607;28;20753;-74
2023/01/21 00:27:22;;;;;;;55.53;22.40;;;-2.90;99.90;;;;;;5035598;28;20044;-74
2023/01/21 00:29:48;;;;;;;53.23;23.83;;;-2.90;99.90;;;;;;5057016;28;20611;-74
2023/01/21 00:32:14;;;;;;;56.13;23.23;;;-2.90;99.90;;;;;;5034492;28;20144;-74
2023/01/21 00:34:40;;;;;;;51.53;22.50;;;-3.00;99.90;;;;;;5015176;28;20041;-74
2023/01/21 00:37:06;;;;;;;54.33;22.17;;;-3.00;99.90;;;;;;5047309;28;20049;-74
2023/01/21 00:39:32;;;;;;;57.97;23.58;;;-3.10;99.90;;;;;;5027917;28;20512;-74
2023/01/21 00:41:58;;;;;;;54.92;24.38;;;-3.10;99.90;;;;;;5034789;28;20048;-74
2023/01/21 00:44:24;;;;;;;54.93;23.33;;;-3.10;99.90;;;;;;5051422;28;20098;-74
2023/01/21 00:46:49;;;;;;;55.60;24.10;;;-3.00;99.90;;;;;;5050837;28;20041;-74
2023/01/21 00:49:15;;;;;;;54.97;23.13;;;-3.00;99.90;;;;;;5022874;28;20033;-74
2023/01/21 00:51:41;;;;;;;56.87;23.90;;;-3.10;99.90;;;;;;5023736;28;20223;-74
2023/01/21 00:54:07;;;;;;;54.27;23.13;;;-3.10;99.90;;;;;;5023769;28;20048;-74
2023/01/21 00:56:32;;;;;;;54.33;23.13;;;-3.20;99.90;;;;;;5010002;28;20079;-74
2023/01/21 00:58:58;;;;;;;53.90;23.57;;;-3.30;99.90;;;;;;5047803;28;20108;-74
2023/01/21 01:01:26;;;;;;;55.67;23.00;;;-3.30;99.90;;;;;;5030440;28;21193;-74
2023/01/21 01:03:52;;;;;;;53.97;22.25;;;-3.40;99.90;;;;;;4990183;28;20424;-74
2023/01/21 01:06:22;;;;;;;54.63;22.50;;;-3.40;99.90;;;;;;5022905;28;20065;-74
2023/01/21 01:08:48;;;;;;;50.20;22.27;;;-3.40;99.90;;;;;;5050080;28;20140;-74
2023/01/21 01:11:16;;;;;;;51.47;21.40;;;-3.50;99.90;;;;;;5058092;28;20033;-74
2023/01/21 01:13:42;;;;;;;52.80;22.33;;;-3.40;99.90;;;;;;5028171;28;20073;-74
2023/01/21 01:16:09;;;;;;;54.73;22.67;;;-3.50;99.90;;;;;;5041990;28;20126;-74
2023/01/21 01:18:36;;;;;;;53.22;23.27;;;-3.50;99.90;;;;;;5035693;28;20478;-74
2023/01/21 01:21:03;;;;;;;53.92;22.70;;;-3.50;99.90;;;;;;5052556;28;20114;-74
2023/01/21 01:23:29;;;;;;;51.53;21.70;;;-3.60;99.90;;;;;;5054102;28;20040;-74
2023/01/21 01:26:00;;;;;;;55.33;21.53;;;-3.60;99.90;;;;;;5036359;28;20075;-74
2023/01/21 01:28:27;;;;;;;55.30;23.08;;;-3.60;99.90;;;;;;5053904;28;20052;-74
2023/01/21 01:30:54;;;;;;;57.47;23.33;;;-3.60;99.90;;;;;;5037013;28;20033;-74
2023/01/21 01:33:20;;;;;;;52.05;21.70;;;-3.60;99.90;;;;;;5056793;28;20484;-74
2023/01/21 01:35:47;;;;;;;57.80;23.15;;;-3.70;99.90;;;;;;5053422;28;20041;-74
2023/01/21 01:38:19;;;;;;;55.75;21.75;;;-3.70;99.90;;;;;;5053143;28;20040;-74
2023/01/21 01:40:46;;;;;;;55.67;22.67;;;-3.70;99.90;;;;;;5052237;28;20040;-74
2023/01/21 01:43:18;;;;;;;54.42;23.63;;;-3.70;99.90;;;;;;5038121;28;20072;-74
2023/01/21 01:45:46;;;;;;;59.60;24.25;;;-3.70;99.90;;;;;;5040834;28;20057;-74
2023/01/21 01:48:17;;;;;;;58.00;23.42;;;-3.70;99.90;;;;;;5035793;28;20211;-74
2023/01/21 01:50:44;;;;;;;56.00;23.83;;;-3.70;99.90;;;;;;5034382;28;20064;-74
2023/01/21 01:53:12;;;;;;;61.45;24.13;;;-3.70;99.90;;;;;;5032718;28;20403;-74
2023/01/21 01:55:38;;;;;;;58.75;23.83;;;-3.70;99.90;;;;;;5034013;28;20049;-75
2023/01/21 01:58:09;;;;;;;55.47;22.25;;;-3.60;99.90;;;;;;5050165;28;20090;-74
2023/01/21 02:00:35;;;;;;;60.85;24.55;;;-3.60;99.90;;;;;;5039657;28;20045;-74
2023/01/21 02:05:46;;;;;;;63.78;26.33;;;-3.60;99.90;;;;;;5048518;28;20061;-74
2023/01/21 02:08:12;;;;;;;58.53;23.35;;;-3.50;99.90;;;;;;5050696;28;20053;-75
2023/01/21 02:10:38;;;;;;;62.90;23.90;;;-3.50;99.90;;;;;;5012358;28;20042;-74
2023/01/21 02:13:04;;;;;;;60.17;25.02;;;-3.50;99.90;;;;;;5032580;28;20167;-75
2023/01/21 02:15:54;;;;;;;62.57;24.30;;;-3.50;99.90;;;;;;5029607;28;20128;-74
2023/01/21 02:18:39;;;;;;;63.40;23.95;;;-3.50;99.90;;;;;;5033142;28;20041;-74
2023/01/21 02:21:34;;;;;;;59.15;25.13;;;-3.60;99.90;;;;;;5032110;28;20570;-74
2023/01/21 02:24:47;;;;;;;59.55;26.42;;;-3.60;99.90;;;;;;5050324;28;20036;-75
2023/01/21 02:27:37;;;;;;;59.05;23.52;;;-3.60;99.90;;;;;;5053398;28;20039;-75
2023/01/21 02:30:09;;;;;;;59.63;24.08;;;-3.60;99.90;;;;;;5020496;28;20098;-74
2023/01/21 02:32:53;;;;;;;58.72;24.67;;;-3.70;99.90;;;;;;5048350;28;20092;-74
2023/01/21 02:35:54;;;;;;;62.22;25.13;;;-3.70;99.90;;;;;;5056086;28;20055;-74
2023/01/21 02:38:53;;;;;;;60.13;24.52;;;-3.70;99.90;;;;;;5032458;28;20040;-74
2023/01/21 02:41:40;;;;;;;64.78;25.52;;;-3.80;99.90;;;;;;4991396;28;20083;-74
2023/01/21 02:44:16;;;;;;;63.58;24.90;;;-3.80;99.90;;;;;;5048434;28;20118;-74
2023/01/21 02:46:56;;;;;;;63.45;23.27;;;-3.80;99.90;;;;;;5031374;28;20449;-74
2023/01/21 02:49:38;;;;;;;61.55;23.88;;;-3.90;99.90;;;;;;5047772;28;20084;-74
2023/01/21 02:52:03;;;;;;;60.15;24.20;;;-3.90;99.90;;;;;;5047920;28;20597;-74
2023/01/21 02:54:38;;;;;;;61.37;25.37;;;-3.90;99.90;;;;;;5048680;28;20037;-74
2023/01/21 02:57:13;;;;;;;60.35;25.17;;;-3.90;99.90;;;;;;5049539;28;20044;-74
2023/01/21 02:59:44;;;;;;;60.72;24.02;;;-3.90;99.90;;;;;;5042816;28;20099;-74
2023/01/21 03:02:33;;;;;;;60.22;23.90;;;-3.90;99.90;;;;;;5022990;28;20048;-74
2023/01/21 03:05:15;;;;;;;55.38;24.20;;;-3.90;99.90;;;;;;5060549;28;20045;-74
2023/01/21 03:07:51;;;;;;;58.47;24.05;;;-3.90;99.90;;;;;;5029924;28;20140;-74
2023/01/21 03:10:30;;;;;;;62.00;24.73;;;-4.00;99.90;;;;;;5031124;28;20060;-74
2023/01/21 03:19:17;;;;;;;60.55;24.15;;;-4.00;99.90;;;;;;5047005;28;20045;-74
2023/01/21 03:21:43;;;;;;;59.25;23.42;;;-4.00;99.90;;;;;;5048242;28;20582;-74
2023/01/21 03:24:12;;;;;;;62.67;25.48;;;-4.00;99.90;;;;;;5016381;28;20045;-74
2023/01/21 03:26:45;;;;;;;58.28;24.35;;;-4.00;99.90;;;;;;5045761;28;20076;-74
2023/01/21 03:29:20;;;;;;;57.20;24.05;;;-4.00;99.90;;;;;;5052542;28;20041;-74
2023/01/21 03:31:50;;;;;;;57.72;23.27;;;-4.00;99.90;;;;;;5052103;28;20045;-74
2023/01/21 03:34:18;;;;;;;62.15;24.30;;;-4.00;99.90;;;;;;5023478;28;20052;-74
2023/01/21 03:36:59;;;;;;;64.97;24.63;;;-4.00;99.90;;;;;;5038194;28;20037;-73
2023/01/21 03:39:52;;;;;;;60.75;24.77;;;-4.00;99.90;;;;;;5035379;28;20083;-72
2023/01/21 03:42:18;;;;;;;62.92;24.77;;;-4.10;99.90;;;;;;5046958;28;20813;-72
2023/01/21 03:44:45;;;;;;;64.75;23.92;;;-4.10;99.90;;;;;;5043802;28;20159;-72
2023/01/21 03:47:28;;;;;;;61.72;24.30;;;-4.10;99.90;;;;;;5032740;28;20125;-72
2023/01/21 03:50:03;;;;;;;61.63;23.92;;;-4.10;99.90;;;;;;5041459;28;20431;-72
2023/01/21 03:52:29;;;;;;;57.50;22.65;;;-4.10;99.90;;;;;;5030881;28;20049;-72
2023/01/21 03:54:54;;;;;;;62.03;24.03;;;-4.20;99.90;;;;;;5032953;28;20052;-72
2023/01/21 03:57:20;;;;;;;61.40;23.13;;;-4.20;99.90;;;;;;5033146;28;20130;-72
2023/01/21 03:59:46;;;;;;;63.00;24.00;;;-4.20;99.90;;;;;;5051970;28;20758;-72
2023/01/21 04:02:12;;;;;;;69.90;24.77;;;-4.20;99.90;;;;;;5022631;28;20139;-72
2023/01/21 04:04:37;;;;;;;67.47;24.90;;;-4.20;99.90;;;;;;5036133;28;20074;-72
2023/01/21 04:07:03;;;;;;;64.60;24.13;;;-4.30;99.90;;;;;;5028938;28;20068;-72
2023/01/21 04:09:29;;;;;;;61.97;24.03;;;-4.30;99.90;;;;;;5014713;28;20063;-72
2023/01/21 04:11:54;;;;;;;64.73;24.13;;;-4.30;99.90;;;;;;5033610;28;20124;-72
2023/01/21 04:14:20;;;;;;;63.33;23.97;;;-4.30;99.90;;;;;;5021620;28;20126;-72
2023/01/21 04:16:46;;;;;;;59.70;25.63;;;-4.30;99.90;;;;;;5034579;28;20139;-72
2023/01/21 04:19:11;;;;;;;59.50;23.37;;;-4.30;99.90;;;;;;5014736;28;20445;-72
2023/01/21 04:21:37;;;;;;;60.50;23.83;;;-4.30;99.90;;;;;;5035854;28;20051;-71
2023/01/21 04:24:03;;;;;;;58.77;22.73;;;-4.30;99.90;;;;;;5031734;28;20115;-71
2023/01/21 04:26:29;;;;;;;61.40;23.47;;;-4.30;99.90;;;;;;5030328;28;20699;-72
2023/01/21 04:28:54;;;;;;;63.93;24.87;;;-4.30;99.90;;;;;;5031246;28;20639;-71
2023/01/21 04:31:20;;;;;;;62.87;25.37;;;-4.20;99.90;;;;;;5029214;28;20053;-72
2023/01/21 04:33:46;;;;;;;63.40;24.97;;;-4.20;99.90;;;;;;5012258;28;20041;-72
2023/01/21 04:36:12;;;;;;;59.67;23.57;;;-4.20;99.90;;;;;;5012695;28;20069;-71
2023/01/21 04:38:38;;;;;;;65.22;24.27;;;-4.10;99.90;;;;;;5037472;28;20254;-71
2023/01/21 04:41:04;;;;;;;66.87;25.07;;;-4.10;99.90;;;;;;5034939;28;20075;-71
2023/01/21 04:43:29;;;;;;;67.20;24.90;;;-4.00;99.90;;;;;;5014150;28;20259;-71
2023/01/21 04:45:55;;;;;;;66.90;24.80;;;-3.80;99.90;;;;;;5029119;28;20049;-71
2023/01/21 04:48:21;;;;;;;69.03;24.57;;;-3.70;99.90;;;;;;5044664;28;20458;-71
2023/01/21 04:50:46;;;;;;;67.87;24.13;;;-3.70;99.90;;;;;;5030308;28;20037;-71
2023/01/21 04:53:12;;;;;;;70.93;25.93;;;-3.50;99.90;;;;;;5030055;28;20045;-71
2023/01/21 04:55:38;;;;;;;76.83;28.40;;;-3.40;99.90;;;;;;5038513;28;20045;-71
2023/01/21 04:58:03;;;;;;;84.97;29.00;;;-3.30;99.90;;;;;;5020478;28;20037;-71
2023/01/21 05:00:29;;;;;;;80.70;30.50;;;-3.20;99.90;;;;;;5010456;28;20048;-71
2023/01/21 05:02:55;;;;;;;77.63;29.57;;;-3.10;99.90;;;;;;5026512;28;20044;-71
2023/01/21 05:05:21;;;;;;;87.40;31.75;;;-3.00;99.90;;;;;;5010698;28;20110;-72
2023/01/21 05:07:46;;;;;;;78.30;30.20;;;-2.90;99.90;;;;;;5029821;28;20053;-72
2023/01/21 05:10:16;;;;;;;90.20;30.97;;;-2.80;99.90;;;;;;5034854;28;20037;-72
2023/01/21 05:12:42;;;;;;;84.88;30.75;;;-2.80;99.90;;;;;;5032320;28;20123;-71
2023/01/21 05:15:08;;;;;;;81.17;29.93;;;-2.70;99.90;;;;;;5040314;28;20121;-71
2023/01/21 05:17:34;;;;;;;82.90;31.15;;;-2.70;99.90;;;;;;5030582;28;20091;-72
2023/01/21 05:19:59;;;;;;;85.20;30.63;;;-2.60;99.90;;;;;;5046956;28;20053;-72
2023/01/21 05:22:25;;;;;;;78.00;29.97;;;-2.60;99.90;;;;;;5030625;28;20086;-72
2023/01/21 05:24:51;;;;;;;73.50;29.03;;;-2.60;99.90;;;;;;5045279;28;20709;-72
2023/01/21 05:27:18;;;;;;;78.30;29.37;;;-2.60;99.90;;;;;;5009300;28;20056;-72
2023/01/21 05:29:44;;;;;;;80.63;31.35;;;-2.60;99.90;;;;;;5035231;28;20083;-72
2023/01/21 05:32:10;;;;;;;73.70;28.70;;;-2.50;99.90;;;;;;5018104;28;20489;-71
2023/01/21 05:34:35;;;;;;;79.20;30.17;;;-2.50;99.90;;;;;;5047844;28;20053;-72
2023/01/21 05:37:01;;;;;;;80.37;30.93;;;-2.50;99.90;;;;;;5013592;28;20084;-72
2023/01/21 05:39:27;;;;;;;74.27;29.23;;;-2.40;99.90;;;;;;5029359;28;20045;-72
2023/01/21 05:41:52;;;;;;;80.90;30.07;;;-2.30;99.90;;;;;;5047213;28;20044;-72
2023/01/21 05:44:18;;;;;;;80.27;28.83;;;-2.20;99.90;;;;;;5048427;28;20193;-72
2023/01/21 05:46:44;;;;;;;77.80;29.50;;;-2.20;99.90;;;;;;5016608;28;20787;-71
2023/01/21 05:49:10;;;;;;;90.23;32.83;;;-2.10;99.90;;;;;;5035072;28;20132;-71
2023/01/21 05:51:36;;;;;;;82.88;31.63;;;-2.10;99.90;;;;;;5031556;28;20558;-71
2023/01/21 05:54:02;;;;;;;85.57;30.47;;;-2.00;99.90;;;;;;5030518;28;20041;-71
2023/01/21 05:56:28;;;;;;;81.07;31.00;;;-2.00;99.90;;;;;;5047346;28;20303;-72
2023/01/21 05:58:53;;;;;;;86.47;30.50;;;-1.90;99.90;;;;;;5030548;28;20120;-72
2023/01/21 06:01:19;;;;;;;88.80;33.83;;;-1.90;99.90;;;;;;5041808;28;20087;-72
2023/01/21 06:03:45;;;;;;;82.73;30.37;;;-1.80;99.90;;;;;;5032674;28;20083;-71
2023/01/21 06:06:10;;;;;;;90.27;31.80;;;-1.80;99.90;;;;;;5031595;28;20106;-71
2023/01/21 06:08:36;;;;;;;90.00;31.70;;;-1.80;99.90;;;;;;5047511;28;20060;-73
2023/01/21 06:11:02;;;;;;;84.87;32.17;;;-1.80;99.90;;;;;;5046970;28;20124;-74
2023/01/21 06:13:28;;;;;;;89.57;31.27;;;-1.80;99.90;;;;;;5048853;28;20083;-74
2023/01/21 06:15:55;;;;;;;83.80;29.83;;;-1.80;99.90;;;;;;5047255;28;20029;-74
2023/01/21 06:18:21;;;;;;;80.50;30.23;;;-1.80;99.90;;;;;;5047156;28;20072;-74
2023/01/21 06:20:47;;;;;;;82.72;31.23;;;-1.80;99.90;;;;;;5030396;28;20041;-74
2023/01/21 06:23:13;;;;;;;79.07;29.70;;;-1.80;99.90;;;;;;5027366;28;20038;-74
2023/01/21 06:25:39;;;;;;;74.30;28.80;;;-1.90;99.90;;;;;;5022463;28;20562;-74
2023/01/21 06:28:05;;;;;;;82.28;31.73;;;-1.90;99.90;;;;;;5019751;28;20087;-74
2023/01/21 06:30:31;;;;;;;85.75;32.88;;;-1.90;99.90;;;;;;5043687;28;20087;-73
2023/01/21 06:32:57;;;;;;;82.20;30.40;;;-1.90;99.90;;;;;;5030474;28;20084;-73
2023/01/21 06:35:23;;;;;;;85.43;32.80;;;-1.80;99.90;;;;;;5054422;28;20291;-74
2023/01/21 06:37:49;;;;;;;76.63;29.27;;;-1.90;99.90;;;;;;5047194;28;20037;-74
2023/01/21 06:40:15;;;;;;;85.73;32.00;;;-1.90;99.90;;;;;;5027762;28;20048;-74
2023/01/21 06:42:45;;;;;;;77.68;29.40;;;-1.90;99.90;;;;;;5013479;28;20047;-73
2023/01/21 06:45:11;;;;;;;74.28;29.63;;;-1.90;99.90;;;;;;5046934;28;20053;-73
2023/01/21 06:47:40;;;;;;;78.72;29.65;;;-1.90;99.90;;;;;;5035488;28;20049;-73
2023/01/21 06:50:06;;;;;;;72.72;29.27;;;-2.00;99.90;;;;;;5038175;28;20512;-74
2023/01/21 06:52:32;;;;;;;75.25;30.95;;;-2.00;99.90;;;;;;5038007;28;20029;-74
2023/01/21 06:54:57;;;;;;;74.30;30.40;;;-2.10;99.90;;;;;;5029027;28;20038;-74
2023/01/21 06:57:24;;;;;;;72.40;28.87;;;-2.20;99.90;;;;;;5039575;28;20041;-74
2023/01/21 06:59:50;;;;;;;66.05;27.42;;;-2.20;99.90;;;;;;5015677;28;20134;-74
2023/01/21 07:02:15;;;;;;;74.43;28.63;;;-2.30;99.90;;;;;;5031369;28;20462;-73
2023/01/21 07:04:41;;;;;;;75.90;30.50;;;-2.30;99.90;;;;;;5027383;28;20051;-74
2023/01/21 07:07:07;;;;;;;78.50;28.97;;;-2.30;99.90;;;;;;5017112;28;20087;-74
2023/01/21 07:09:32;;;;;;;75.00;29.03;;;-2.30;99.90;;;;;;5056655;28;20045;-74
2023/01/21 07:11:58;;;;;;;82.30;32.23;;;-2.30;99.90;;;;;;5015096;28;20042;-74
2023/01/21 07:14:24;;;;;;;80.20;30.13;;;-2.30;99.90;;;;;;5040731;28;20048;-73
2023/01/21 07:16:49;;;;;;;75.80;29.03;;;-2.30;99.90;;;;;;5047606;28;20037;-73
2023/01/21 07:19:15;;;;;;;73.30;29.43;;;-2.40;99.90;;;;;;5049263;28;20106;-73
2023/01/21 07:21:41;;;;;;;80.63;30.73;;;-2.40;99.90;;;;;;5050132;28;20040;-74
2023/01/21 07:24:08;;;;;;;72.70;29.77;;;-2.40;99.90;;;;;;5049933;28;21044;-74
2023/01/21 07:26:36;;;;;;;77.68;31.25;;;-2.50;99.90;;;;;;5017402;28;20105;-74
2023/01/21 07:29:04;;;;;;;73.78;29.15;;;-2.50;99.90;;;;;;5050132;28;20045;-74
2023/01/21 07:31:30;;;;;;;68.20;28.05;;;-2.60;99.90;;;;;;5049760;28;20112;-74
2023/01/21 07:33:55;;;;;;;82.07;32.30;;;-2.60;99.90;;;;;;5032655;28;20119;-74
2023/01/21 07:36:21;;;;;;;77.70;30.63;;;-2.70;99.90;;;;;;5032780;28;20543;-74
2023/01/21 07:38:47;;;;;;;70.23;30.67;;;-2.70;99.90;;;;;;5023978;28;20044;-74
2023/01/21 07:41:13;;;;;;;74.57;29.77;;;-2.70;99.90;;;;;;5032171;28;20250;-74
2023/01/21 07:43:38;;;;;;;74.37;29.83;;;-2.80;99.90;;;;;;5032020;28;20041;-74
2023/01/21 07:46:04;;;;;;;68.97;30.07;;;-2.80;99.90;;;;;;5022604;28;20091;-73
2023/01/21 07:48:30;;;;;;;73.20;30.70;;;-2.80;99.90;;;;;;5047810;28;20439;-73
2023/01/21 07:50:57;;;;;;;71.80;31.50;;;-2.80;99.90;;;;;;5012853;28;20037;-73
2023/01/21 07:53:23;;;;;;;76.75;31.30;;;-2.80;99.90;;;;;;5063159;28;20492;-73
2023/01/21 07:55:49;;;;;;;78.78;33.00;;;-2.80;99.90;;;;;;5032809;28;20051;-73
2023/01/21 07:58:15;;;;;;;75.33;30.50;;;-2.80;99.90;;;;;;5031240;28;20062;-73
2023/01/21 08:00:41;;;;;;;77.60;31.93;;;-2.70;99.90;;;;;;5034578;28;20049;-73
2023/01/21 08:03:06;;;;;;;81.45;32.67;;;-2.70;99.90;;;;;;5029244;28;20133;-73
2023/01/21 08:05:32;;;;;;;78.63;33.10;;;-2.60;99.90;;;;;;5032207;28;20132;-73
2023/01/21 08:07:58;;;;;;;85.80;36.33;;;-2.60;99.90;;;;;;5048876;28;20102;-74
2023/01/21 08:10:24;;;;;;;80.10;33.33;;;-2.50;99.90;;;;;;5047961;28;20048;-74
2023/01/21 08:12:50;;;;;;;83.80;33.47;;;-2.40;99.90;;;;;;5048611;28;20114;-73
2023/01/21 08:15:16;;;;;;;79.33;30.83;;;-2.30;99.90;;;;;;5032720;28;20048;-73
2023/01/21 08:17:42;;;;;;;77.93;31.27;;;-2.30;99.90;;;;;;5015660;28;20064;-74
2023/01/21 08:20:10;;;;;;;83.00;31.15;;;-2.20;99.90;;;;;;5032688;28;20040;-73
2023/01/21 08:22:36;;;;;;;87.63;32.75;;;-2.20;99.90;;;;;;5031231;28;20036;-73
2023/01/21 08:25:03;;;;;;;87.28;32.72;;;-2.10;99.90;;;;;;5046419;28;20040;-73
2023/01/21 08:27:29;;;;;;;90.10;32.83;;;-2.10;99.90;;;;;;5011349;28;20041;-74
2023/01/21 08:29:54;;;;;;;89.20;32.93;;;-2.00;99.90;;;;;;5030746;28;20037;-74
2023/01/21 08:32:20;;;;;;;86.33;32.57;;;-2.00;99.90;;;;;;5017875;28;20099;-72
2023/01/21 08:34:46;;;;;;;95.90;34.27;;;-1.90;99.90;;;;;;5032754;28;20041;-72
2023/01/21 08:37:12;;;;;;;88.50;32.97;;;-1.80;99.90;;;;;;5029913;28;20033;-72
2023/01/21 08:39:38;;;;;;;85.35;32.58;;;-1.80;99.90;;;;;;5039324;28;20456;-72
2023/01/21 08:42:04;;;;;;;98.37;34.97;;;-1.70;99.90;;;;;;5001004;28;20045;-71
2023/01/21 08:44:29;;;;;;;95.70;35.60;;;-1.60;99.90;;;;;;5029269;28;20053;-72
2023/01/21 08:46:55;;;;;;;84.47;33.10;;;-1.50;99.90;;;;;;5046519;28;20051;-72
2023/01/21 08:49:21;;;;;;;89.57;33.67;;;-1.50;99.90;;;;;;5032887;28;20044;-71
2023/01/21 08:51:48;;;;;;;90.72;32.50;;;-1.50;99.90;;;;;;5025971;28;20079;-72
2023/01/21 08:54:14;;;;;;;90.60;32.95;;;-1.40;99.90;;;;;;5032960;28;20048;-72
2023/01/21 08:56:39;;;;;;;81.83;32.13;;;-1.40;99.90;;;;;;5032832;28;20477;-71
2023/01/21 08:59:05;;;;;;;86.10;32.47;;;-1.40;99.90;;;;;;5029065;28;20034;-72
2023/01/21 09:01:32;;;;;;;81.40;33.05;;;-1.50;99.90;;;;;;5023210;28;20124;-72
2023/01/21 09:03:59;;;;;;;91.15;34.28;;;-1.50;99.90;;;;;;5057800;28;20394;-72
2023/01/21 09:06:28;;;;;;;80.82;31.75;;;-1.50;99.90;;;;;;5045758;28;20130;-71
2023/01/21 09:08:55;;;;;;;81.72;32.97;;;-1.50;99.90;;;;;;5030634;28;20052;-72
2023/01/21 09:11:21;;;;;;;78.25;33.75;;;-1.50;99.90;;;;;;5048694;28;20127;-72
2023/01/21 09:13:47;;;;;;;82.55;33.47;;;-1.40;99.90;;;;;;5050827;28;20087;-72
2023/01/21 09:16:19;;;;;;;83.30;32.87;;;-1.30;99.90;;;;;;5050340;28;20513;-72
2023/01/21 09:18:46;;;;;;;85.35;33.63;;;-1.20;99.90;;;;;;5048117;28;20734;-72
2023/01/21 09:21:12;;;;;;;84.75;33.08;;;-1.10;99.90;;;;;;5033016;28;20124;-74
2023/01/21 09:23:39;;;;;;;81.03;32.20;;;-0.90;99.90;;;;;;5051013;28;20519;-74
2023/01/21 09:26:14;;;;;;;77.13;32.90;;;-0.80;99.90;;;;;;5050348;28;20077;-74
2023/01/21 09:28:41;;;;;;;79.90;33.13;;;-0.70;99.90;;;;;;5035009;28;20064;-72
2023/01/21 09:31:10;;;;;;;85.80;33.60;;;-0.50;99.90;;;;;;5031594;28;20041;-73
2023/01/21 09:33:38;;;;;;;83.82;33.60;;;-0.40;99.90;;;;;;5033229;28;20049;-74
2023/01/21 09:36:06;;;;;;;77.40;32.67;;;-0.20;99.90;;;;;;5035697;28;20044;-73
2023/01/21 09:38:31;;;;;;;71.22;31.35;;;-0.10;99.90;;;;;;5037713;28;20730;-73
2023/01/21 09:41:21;;;;;;;74.40;31.93;;;0.00;99.90;;;;;;5049598;28;20037;-73
2023/01/21 09:44:28;;;;;;;73.35;30.80;;;-0.10;99.90;;;;;;5051812;28;20049;-73
2023/01/21 09:46:54;;;;;;;69.57;30.65;;;-0.10;99.90;;;;;;5011398;28;20162;-73
2023/01/21 09:49:40;;;;;;;69.93;28.93;;;-0.20;99.90;;;;;;5054165;28;20419;-74
2023/01/21 09:52:25;;;;;;;;;;;-0.30;99.90;;;;;;5047979;28;20131;-74
2023/01/21 09:54:58;;;;;;;66.47;29.02;;;-0.30;99.90;;;;;;5062487;28;20497;-75
2023/01/21 09:57:51;;;;;;;64.80;29.80;;;-0.40;99.90;;;;;;5049717;28;20040;-75
2023/01/21 10:00:32;;;;;;;67.50;30.02;;;-0.40;99.90;;;;;;5051271;28;20048;-74
2023/01/21 10:03:08;;;;;;;68.65;30.33;;;-0.30;99.90;;;;;;5047940;28;20040;-74
2023/01/21 10:06:02;;;;;;;71.82;32.40;;;-0.20;99.90;;;;;;5049466;28;20052;-73
2023/01/21 10:09:03;;;;;;;62.33;29.42;;;0.00;99.90;;;;;;5044277;28;20136;-74
2023/01/21 10:11:38;;;;;;;81.45;33.58;;;0.20;99.90;;;;;;4975090;28;20042;-73
2023/01/21 10:14:22;;;;;;;77.72;34.05;;;0.40;99.90;;;;;;5022680;28;20084;-74
2023/01/21 10:17:06;;;;;;;72.78;33.45;;;0.60;99.90;;;;;;5057474;28;20049;-74
2023/01/21 10:19:41;;;;;;;76.82;33.22;;;0.70;99.90;;;;;;5047259;28;20048;-73
2023/01/21 10:22:20;;;;;;;66.80;31.45;;;0.80;99.90;;;;;;5032671;28;20036;-73
2023/01/21 10:24:56;;;;;;;65.00;30.85;;;0.90;99.90;;;;;;5032689;28;20037;-73
2023/01/21 10:27:23;;;;;;;62.00;28.15;;;1.10;99.90;;;;;;5033978;28;20048;-73
2023/01/21 10:29:54;;;;;;;60.05;26.60;;;1.20;99.90;;;;;;5049232;28;20112;-73
2023/01/21 10:32:23;;;;;;;50.08;24.02;;;1.30;99.90;;;;;;5049782;28;20408;-73
2023/01/21 10:34:51;;;;;;;54.45;24.35;;;1.40;99.90;;;;;;5041610;28;20048;-73
2023/01/21 10:37:37;;;;;;;49.72;25.13;;;1.40;99.90;;;;;;5049637;28;20545;-74
2023/01/21 10:40:42;;;;;;;51.70;24.05;;;1.40;99.90;;;;;;5060283;28;20537;-75
2023/01/21 10:43:23;;;;;;;49.35;24.17;;;1.40;99.90;;;;;;5050310;28;20057;-73
2023/01/21 10:46:11;;;;;;;50.85;26.02;;;1.40;99.90;;;;;;5055925;28;20084;-73
2023/01/21 10:48:55;;;;;;;48.58;23.98;;;1.40;99.90;;;;;;5049627;28;20048;-73
2023/01/21 10:51:28;;;;;;;45.53;23.98;;;1.50;99.90;;;;;;5049842;28;20519;-74
2023/01/21 10:54:30;;;;;;;46.00;23.73;;;1.50;99.90;;;;;;5050063;28;20044;-74
2023/01/21 10:57:19;;;;;;;47.15;22.70;;;1.60;99.90;;;;;;5045677;28;20068;-74
2023/01/21 10:59:46;;;;;;;44.05;21.95;;;1.60;99.90;;;;;;5047754;28;20118;-74
2023/01/21 11:02:31;;;;;;;43.50;22.80;;;1.70;99.90;;;;;;5048708;28;20049;-74
2023/01/21 11:05:02;;;;;;;46.35;22.73;;;1.70;99.90;;;;;;5048190;28;20126;-73
2023/01/21 11:07:33;;;;;;;40.72;20.70;;;1.70;99.90;;;;;;5050002;28;20061;-73
2023/01/21 11:10:02;;;;;;;42.65;21.35;;;1.70;99.90;;;;;;5048686;28;20104;-73
2023/01/21 11:12:29;;;;;;;37.10;20.40;;;1.70;99.90;;;;;;5047175;28;20041;-73
2023/01/21 11:15:01;;;;;;;36.38;20.23;;;1.80;99.90;;;;;;5047756;28;20049;-73
2023/01/21 11:17:33;;;;;;;32.83;16.70;;;1.90;99.90;;;;;;5050757;28;20549;-73
2023/01/21 11:20:01;;;;;;;32.33;16.92;;;1.90;99.90;;;;;;5049161;28;20073;-73
2023/01/21 11:22:30;;;;;;;30.25;14.60;;;2.00;99.90;;;;;;5032812;28;20073;-73
2023/01/21 11:24:55;;;;;;;30.65;16.17;;;2.00;99.90;;;;;;5043329;28;20098;-73
2023/01/21 11:27:31;;;;;;;34.77;17.27;;;2.10;99.90;;;;;;5049622;28;20044;-73
2023/01/21 11:29:57;;;;;;;33.53;16.58;;;2.10;99.90;;;;;;5043011;28;20047;-73
2023/01/21 11:32:26;;;;;;;31.17;16.40;;;2.20;99.90;;;;;;5049929;28;20029;-73
2023/01/21 11:35:06;;;;;;;35.15;16.95;;;2.20;99.90;;;;;;5044158;28;20045;-73
2023/01/21 11:37:32;;;;;;;31.30;16.92;;;2.30;99.90;;;;;;5055061;28;20072;-73
2023/01/21 11:40:03;;;;;;;31.48;16.95;;;2.40;99.90;;;;;;5055774;28;20044;-73
2023/01/21 11:42:29;;;;;;;29.20;15.27;;;2.50;99.90;;;;;;5048673;28;20120;-73
2023/01/21 11:45:04;;;;;;;25.67;14.33;;;2.50;99.90;;;;;;5052921;28;20103;-73
2023/01/21 11:47:36;;;;;;;22.73;13.05;;;2.60;99.90;;;;;;5040983;28;20040;-73
2023/01/21 11:50:13;;;;;;;24.17;12.88;;;2.70;99.90;;;;;;5042782;28;21165;-73
2023/01/21 11:52:39;;;;;;;25.02;13.52;;;2.70;99.90;;;;;;5055137;28;20041;-73
2023/01/21 11:55:23;;;;;;;25.73;13.53;;;2.70;99.90;;;;;;5055442;28;20056;-73
2023/01/21 11:57:55;;;;;;;22.70;13.18;;;2.80;99.90;;;;;;5057728;28;20082;-73
2023/01/21 12:00:23;;;;;;;23.23;12.90;;;2.80;99.90;;;;;;5043286;28;20032;-74
2023/01/21 12:02:56;;;;;;;23.85;12.88;;;2.80;99.90;;;;;;5057105;28;20042;-73
2023/01/21 12:05:33;;;;;;;26.98;13.85;;;2.80;99.90;;;;;;5058880;28;20047;-73
2023/01/21 12:08:01;;;;;;;26.17;14.95;;;2.80;99.90;;;;;;5043454;28;20056;-73
2023/01/21 12:10:37;;;;;;;25.88;14.73;;;2.90;99.90;;;;;;5062412;28;20049;-73
2023/01/21 12:13:25;;;;;;;25.40;13.70;;;2.90;99.90;;;;;;5071126;28;20579;-74
2023/01/21 12:16:12;;;;;;;23.77;14.00;;;3.00;99.90;;;;;;5060404;28;20064;-73
2023/01/21 12:18:51;;;;;;;24.73;13.60;;;3.00;99.90;;;;;;5060310;28;20108;-74
2023/01/21 12:21:45;;;;;;;23.88;14.23;;;3.00;99.90;;;;;;5060804;28;20041;-74
2023/01/21 12:24:35;;;;;;;25.40;14.05;;;3.00;99.90;;;;;;5057123;28;20044;-73
2023/01/21 12:27:24;;;;;;;24.42;14.93;;;3.00;99.90;;;;;;5065592;28;20179;-73
2023/01/21 12:30:08;;;;;;;27.65;15.15;;;3.00;99.90;;;;;;5043957;28;20041;-74
2023/01/21 12:32:41;;;;;;;29.35;15.50;;;3.00;99.90;;;;;;5058483;28;20036;-74
2023/01/21 12:35:27;;;;;;;29.90;15.75;;;3.00;99.90;;;;;;5042401;28;20033;-74
2023/01/21 12:38:06;;;;;;;24.58;15.15;;;3.00;99.90;;;;;;5052441;28;20068;-73
2023/01/21 12:40:53;;;;;;;25.23;14.75;;;3.00;99.90;;;;;;5068447;28;20090;-73
2023/01/21 12:43:34;;;;;;;27.83;15.60;;;3.00;99.90;;;;;;5073938;28;20044;-73
2023/01/21 12:46:09;;;;;;;24.92;14.70;;;2.90;99.90;;;;;;5050142;28;20095;-73
2023/01/21 12:48:38;;;;;;;26.05;14.70;;;2.90;99.90;;;;;;5049013;28;20472;-73
2023/01/21 12:51:16;;;;;;;27.23;14.98;;;2.90;99.90;;;;;;5033758;28;20040;-72
2023/01/21 12:53:51;;;;;;;26.35;14.25;;;2.90;99.90;;;;;;5043164;28;20065;-74